sensor_id;sensor_type;location;lat;lon;timestamp;temperature;humidity
26270;DHT22;15937;50.612;6.656;2023-07-13T00:00:57;17.30;99.90
26270;DHT22;15937;50.612;6.656;2023-07-13T00:04:58;17.30;99.90
26270;DHT22;15937;50.612;6.656;2023-07-13T00:09:00;17.30;99.90
26270;DHT22;15937;50.612;6.656;2023-07-13T00:13:02;17.20;99.90
26270;DHT22;15937;50.612;6.656;2023-07-13T00:17:03;17.00;99.90
26270;DHT22;15937;50.612;6.656;2023-07-13T00:21:06;16.80;99.90
26270;DHT22;15937;50.612;6.656;2023-07-13T00:25:09;16.70;99.90
26270;DHT22;15937;50.612;6.656;2023-07-13T00:29:12;16.70;99.90
26270;DHT22;15937;50.612;6.656;2023-07-13T00:33:14;16.10;99.90
26270;DHT22;15937;50.612;6.656;2023-07-13T00:37:19;16.10;99.90
26270;DHT22;15937;50.612;6.656;2023-07-13T00:41:21;16.00;99.90
26270;DHT22;15937;50.612;6.656;2023-07-13T00:49:25;15.70;99.90
26270;DHT22;15937;50.612;6.656;2023-07-13T00:53:27;15.90;99.90
26270;DHT22;15937;50.612;6.656;2023-07-13T00:57:30;15.80;99.90
26270;DHT22;15937;50.612;6.656;2023-07-13T01:01:33;16.00;99.90
26270;DHT22;15937;50.612;6.656;2023-07-13T01:05:35;16.00;99.90
26270;DHT22;15937;50.612;6.656;2023-07-13T01:09:38;15.80;99.90
26270;DHT22;15937;50.612;6.656;2023-07-13T01:13:40;15.80;99.90
26270;DHT22;15937;50.612;6.656;2023-07-13T01:17:42;15.80;99.90
26270;DHT22;15937;50.612;6.656;2023-07-13T01:21:52;15.70;99.90
26270;DHT22;15937;50.612;6.656;2023-07-13T01:25:54;15.70;99.90
26270;DHT22;15937;50.612;6.656;2023-07-13T01:29:56;15.60;99.90
26270;DHT22;15937;50.612;6.656;2023-07-13T01:34:06;15.60;99.90
26270;DHT22;15937;50.612;6.656;2023-07-13T01:38:08;15.40;99.90
26270;DHT22;15937;50.612;6.656;2023-07-13T01:42:10;15.40;99.90
26270;DHT22;15937;50.612;6.656;2023-07-13T01:46:12;15.30;99.90
26270;DHT22;15937;50.612;6.656;2023-07-13T01:50:16;15.40;99.90
26270;DHT22;15937;50.612;6.656;2023-07-13T01:54:18;15.40;99.90
26270;DHT22;15937;50.612;6.656;2023-07-13T01:58:20;15.40;99.90
26270;DHT22;15937;50.612;6.656;2023-07-13T02:02:22;15.40;99.90
26270;DHT22;15937;50.612;6.656;2023-07-13T02:06:24;15.10;99.90
26270;DHT22;15937;50.612;6.656;2023-07-13T02:10:25;15.00;99.90
26270;DHT22;15937;50.612;6.656;2023-07-13T02:14:27;15.10;99.90
26270;DHT22;15937;50.612;6.656;2023-07-13T02:18:29;15.00;99.90
26270;DHT22;15937;50.612;6.656;2023-07-13T02:22:31;15.20;99.90
26270;DHT22;15937;50.612;6.656;2023-07-13T02:26:32;15.30;99.90
26270;DHT22;15937;50.612;6.656;2023-07-13T02:30:35;15.20;99.90
26270;DHT22;15937;50.612;6.656;2023-07-13T02:34:37;15.10;99.90
26270;DHT22;15937;50.612;6.656;2023-07-13T02:38:38;15.00;99.90
26270;DHT22;15937;50.612;6.656;2023-07-13T02:42:40;15.00;99.90
26270;DHT22;15937;50.612;6.656;2023-07-13T02:46:42;14.80;99.90
26270;DHT22;15937;50.612;6.656;2023-07-13T02:50:44;14.70;99.90
26270;DHT22;15937;50.612;6.656;2023-07-13T02:54:46;14.60;99.90
26270;DHT22;15937;50.612;6.656;2023-07-13T02:58:48;14.60;99.90
26270;DHT22;15937;50.612;6.656;2023-07-13T03:02:49;14.70;99.90
26270;DHT22;15937;50.612;6.656;2023-07-13T03:06:51;14.60;99.90
26270;DHT22;15937;50.612;6.656;2023-07-13T03:11:03;14.60;99.90
26270;DHT22;15937;50.612;6.656;2023-07-13T03:15:05;14.60;99.90
26270;DHT22;15937;50.612;6.656;2023-07-13T03:19:07;14.70;99.90
26270;DHT22;15937;50.612;6.656;2023-07-13T03:23:09;14.60;99.90
26270;DHT22;15937;50.612;6.656;2023-07-13T03:27:13;14.60;99.90
26270;DHT22;15937;50.612;6.656;2023-07-13T03:31:19;14.70;99.90
26270;DHT22;15937;50.612;6.656;2023-07-13T03:40:21;14.70;99.90
26270;DHT22;15937;50.612;6.656;2023-07-13T03:44:23;14.70;99.90
26270;DHT22;15937;50.612;6.656;2023-07-13T03:49:09;14.70;99.90
26270;DHT22;15937;50.612;6.656;2023-07-13T03:53:11;14.80;99.90
26270;DHT22;15937;50.612;6.656;2023-07-13T04:01:59;14.80;99.90
26270;DHT22;15937;50.612;6.656;2023-07-13T04:11:25;14.80;99.90
26270;DHT22;15937;50.612;6.656;2023-07-13T04:15:39;14.90;99.90
26270;DHT22;15937;50.612;6.656;2023-07-13T04:19:41;15.10;99.90
26270;DHT22;15937;50.612;6.656;2023-07-13T04:23:46;15.20;99.90
26270;DHT22;15937;50.612;6.656;2023-07-13T04:27:48;15.20;99.90
26270;DHT22;15937;50.612;6.656;2023-07-13T04:31:49;15.30;99.90
26270;DHT22;15937;50.612;6.656;2023-07-13T04:35:52;15.30;99.90
26270;DHT22;15937;50.612;6.656;2023-07-13T04:39:57;15.40;99.90
26270;DHT22;15937;50.612;6.656;2023-07-13T04:43:59;15.40;99.90
26270;DHT22;15937;50.612;6.656;2023-07-13T04:48:03;15.50;99.90
26270;DHT22;15937;50.612;6.656;2023-07-13T04:52:05;15.50;99.90
26270;DHT22;15937;50.612;6.656;2023-07-13T04:56:08;15.40;99.90
26270;DHT22;15937;50.612;6.656;2023-07-13T05:00:11;15.40;99.90
26270;DHT22;15937;50.612;6.656;2023-07-13T05:04:13;15.40;99.90
26270;DHT22;15937;50.612;6.656;2023-07-13T05:08:14;15.50;99.90
26270;DHT22;15937;50.612;6.656;2023-07-13T05:12:16;15.50;99.90
26270;DHT22;15937;50.612;6.656;2023-07-13T05:16:18;15.60;99.90
26270;DHT22;15937;50.612;6.656;2023-07-13T05:20:20;16.00;99.90
26270;DHT22;15937;50.612;6.656;2023-07-13T05:24:22;16.20;99.90
26270;DHT22;15937;50.612;6.656;2023-07-13T05:28:26;16.30;99.90
26270;DHT22;15937;50.612;6.656;2023-07-13T05:32:29;16.50;99.90
26270;DHT22;15937;50.612;6.656;2023-07-13T05:36:34;16.70;99.90
26270;DHT22;15937;50.612;6.656;2023-07-13T05:40:36;16.70;99.90
26270;DHT22;15937;50.612;6.656;2023-07-13T05:44:38;16.80;99.90
26270;DHT22;15937;50.612;6.656;2023-07-13T05:48:39;16.80;99.90
26270;DHT22;15937;50.612;6.656;2023-07-13T05:52:41;16.90;99.90
26270;DHT22;15937;50.612;6.656;2023-07-13T05:56:43;16.80;99.90
26270;DHT22;15937;50.612;6.656;2023-07-13T06:00:45;17.00;99.90
26270;DHT22;15937;50.612;6.656;2023-07-13T06:04:48;17.50;99.90
26270;DHT22;15937;50.612;6.656;2023-07-13T06:08:53;17.30;99.90
26270;DHT22;15937;50.612;6.656;2023-07-13T06:12:55;17.90;99.90
26270;DHT22;15937;50.612;6.656;2023-07-13T06:16:57;17.80;99.90
26270;DHT22;15937;50.612;6.656;2023-07-13T06:20:59;18.10;99.90
26270;DHT22;15937;50.612;6.656;2023-07-13T06:25:01;17.90;99.90
26270;DHT22;15937;50.612;6.656;2023-07-13T06:29:02;18.20;99.90
26270;DHT22;15937;50.612;6.656;2023-07-13T06:33:04;18.50;99.90
26270;DHT22;15937;50.612;6.656;2023-07-13T06:37:06;18.40;99.90
26270;DHT22;15937;50.612;6.656;2023-07-13T06:41:08;18.40;99.90
26270;DHT22;15937;50.612;6.656;2023-07-13T06:45:11;18.70;99.90
26270;DHT22;15937;50.612;6.656;2023-07-13T06:49:12;18.90;99.90
26270;DHT22;15937;50.612;6.656;2023-07-13T06:53:14;18.80;99.90
26270;DHT22;15937;50.612;6.656;2023-07-13T06:57:16;18.80;99.90
26270;DHT22;15937;50.612;6.656;2023-07-13T07:01:17;19.30;99.90
26270;DHT22;15937;50.612;6.656;2023-07-13T07:05:19;19.20;99.90
26270;DHT22;15937;50.612;6.656;2023-07-13T07:09:23;18.50;99.90
26270;DHT22;15937;50.612;6.656;2023-07-13T07:13:25;18.80;99.90
26270;DHT22;15937;50.612;6.656;2023-07-13T07:17:26;19.50;99.90
26270;DHT22;15937;50.612;6.656;2023-07-13T07:21:29;19.70;99.90
26270;DHT22;15937;50.612;6.656;2023-07-13T07:25:30;19.60;99.90
26270;DHT22;15937;50.612;6.656;2023-07-13T07:29:34;19.30;99.90
26270;DHT22;15937;50.612;6.656;2023-07-13T07:33:39;19.60;99.90
26270;DHT22;15937;50.612;6.656;2023-07-13T07:37:41;19.50;99.90
26270;DHT22;15937;50.612;6.656;2023-07-13T07:41:45;20.20;99.90
26270;DHT22;15937;50.612;6.656;2023-07-13T07:45:53;20.10;99.90
26270;DHT22;15937;50.612;6.656;2023-07-13T07:49:57;19.50;99.90
26270;DHT22;15937;50.612;6.656;2023-07-13T07:54:05;20.10;99.90
26270;DHT22;15937;50.612;6.656;2023-07-13T07:58:08;20.00;99.90
26270;DHT22;15937;50.612;6.656;2023-07-13T08:02:30;20.00;99.90
26270;DHT22;15937;50.612;6.656;2023-07-13T08:06:34;19.80;99.90
26270;DHT22;15937;50.612;6.656;2023-07-13T08:10:39;20.00;99.90
26270;DHT22;15937;50.612;6.656;2023-07-13T08:14:41;20.60;99.90
26270;DHT22;15937;50.612;6.656;2023-07-13T08:18:53;19.90;99.90
26270;DHT22;15937;50.612;6.656;2023-07-13T08:22:56;20.30;99.90
26270;DHT22;15937;50.612;6.656;2023-07-13T08:26:58;20.40;99.90
26270;DHT22;15937;50.612;6.656;2023-07-13T08:31:04;20.50;99.90
26270;DHT22;15937;50.612;6.656;2023-07-13T08:35:06;20.00;99.90
26270;DHT22;15937;50.612;6.656;2023-07-13T08:39:08;20.70;99.90
26270;DHT22;15937;50.612;6.656;2023-07-13T08:43:16;21.20;99.90
26270;DHT22;15937;50.612;6.656;2023-07-13T08:47:20;21.00;99.90
26270;DHT22;15937;50.612;6.656;2023-07-13T08:55:34;20.40;99.90
26270;DHT22;15937;50.612;6.656;2023-07-13T08:59:39;21.60;96.40
26270;DHT22;15937;50.612;6.656;2023-07-13T09:03:44;21.10;97.40
26270;DHT22;15937;50.612;6.656;2023-07-13T09:11:50;22.30;92.60
26270;DHT22;15937;50.612;6.656;2023-07-13T09:15:56;22.10;91.30
26270;DHT22;15937;50.612;6.656;2023-07-13T09:20:02;22.10;92.60
26270;DHT22;15937;50.612;6.656;2023-07-13T09:24:22;21.50;93.00
26270;DHT22;15937;50.612;6.656;2023-07-13T09:28:27;21.70;91.70
26270;DHT22;15937;50.612;6.656;2023-07-13T09:32:32;21.60;92.40
26270;DHT22;15937;50.612;6.656;2023-07-13T09:36:34;22.00;92.70
26270;DHT22;15937;50.612;6.656;2023-07-13T09:40:40;21.60;94.90
26270;DHT22;15937;50.612;6.656;2023-07-13T09:44:49;21.30;94.50
26270;DHT22;15937;50.612;6.656;2023-07-13T09:48:52;21.30;96.50
26270;DHT22;15937;50.612;6.656;2023-07-13T09:52:54;21.60;93.00
26270;DHT22;15937;50.612;6.656;2023-07-13T09:57:00;21.90;93.30
26270;DHT22;15937;50.612;6.656;2023-07-13T10:01:02;22.00;93.50
26270;DHT22;15937;50.612;6.656;2023-07-13T10:05:11;22.60;91.20
26270;DHT22;15937;50.612;6.656;2023-07-13T10:09:16;21.90;92.20
26270;DHT22;15937;50.612;6.656;2023-07-13T10:13:29;23.10;89.00
26270;DHT22;15937;50.612;6.656;2023-07-13T10:17:31;23.20;90.00
26270;DHT22;15937;50.612;6.656;2023-07-13T10:21:40;22.10;90.70
26270;DHT22;15937;50.612;6.656;2023-07-13T10:25:44;22.40;85.90
26270;DHT22;15937;50.612;6.656;2023-07-13T10:29:51;22.90;84.50
26270;DHT22;15937;50.612;6.656;2023-07-13T10:33:54;22.20;90.00
26270;DHT22;15937;50.612;6.656;2023-07-13T10:38:03;21.60;90.20
26270;DHT22;15937;50.612;6.656;2023-07-13T10:42:08;21.10;90.40
26270;DHT22;15937;50.612;6.656;2023-07-13T10:46:12;21.00;93.50
26270;DHT22;15937;50.612;6.656;2023-07-13T10:50:20;20.90;92.70
26270;DHT22;15937;50.612;6.656;2023-07-13T10:58:37;20.90;88.70
26270;DHT22;15937;50.612;6.656;2023-07-13T11:02:39;21.20;89.10
26270;DHT22;15937;50.612;6.656;2023-07-13T11:06:42;20.50;91.40
26270;DHT22;15937;50.612;6.656;2023-07-13T11:27:21;20.90;92.40
26270;DHT22;15937;50.612;6.656;2023-07-13T11:31:23;21.10;92.40
26270;DHT22;15937;50.612;6.656;2023-07-13T11:35:25;21.00;90.10
26270;DHT22;15937;50.612;6.656;2023-07-13T11:39:31;21.00;90.80
26270;DHT22;15937;50.612;6.656;2023-07-13T11:43:33;21.30;91.10
26270;DHT22;15937;50.612;6.656;2023-07-13T11:47:39;21.40;90.10
26270;DHT22;15937;50.612;6.656;2023-07-13T11:51:41;21.00;89.30
26270;DHT22;15937;50.612;6.656;2023-07-13T11:55:43;20.90;90.60
26270;DHT22;15937;50.612;6.656;2023-07-13T11:59:45;20.80;91.30
26270;DHT22;15937;50.612;6.656;2023-07-13T12:03:47;21.20;89.30
26270;DHT22;15937;50.612;6.656;2023-07-13T12:07:49;21.30;91.20
26270;DHT22;15937;50.612;6.656;2023-07-13T12:11:52;20.80;92.40
26270;DHT22;15937;50.612;6.656;2023-07-13T12:15:54;20.50;93.00
26270;DHT22;15937;50.612;6.656;2023-07-13T12:19:56;20.50;93.30
26270;DHT22;15937;50.612;6.656;2023-07-13T12:23:59;20.70;92.40
26270;DHT22;15937;50.612;6.656;2023-07-13T12:28:19;20.80;92.20
26270;DHT22;15937;50.612;6.656;2023-07-13T12:32:21;20.90;91.00
26270;DHT22;15937;50.612;6.656;2023-07-13T12:36:23;21.20;91.20
26270;DHT22;15937;50.612;6.656;2023-07-13T12:40:26;21.20;92.10
26270;DHT22;15937;50.612;6.656;2023-07-13T12:44:29;21.00;90.70
26270;DHT22;15937;50.612;6.656;2023-07-13T12:48:37;21.60;90.50
26270;DHT22;15937;50.612;6.656;2023-07-13T12:52:51;21.30;90.90
26270;DHT22;15937;50.612;6.656;2023-07-13T12:56:54;21.00;92.70
26270;DHT22;15937;50.612;6.656;2023-07-13T13:01:01;21.00;91.70
26270;DHT22;15937;50.612;6.656;2023-07-13T13:05:04;21.10;90.90
26270;DHT22;15937;50.612;6.656;2023-07-13T13:09:09;20.70;91.50
26270;DHT22;15937;50.612;6.656;2023-07-13T13:13:12;21.00;91.90
26270;DHT22;15937;50.612;6.656;2023-07-13T13:17:21;21.60;91.10
26270;DHT22;15937;50.612;6.656;2023-07-13T13:21:26;21.80;90.00
26270;DHT22;15937;50.612;6.656;2023-07-13T13:25:28;21.80;88.50
26270;DHT22;15937;50.612;6.656;2023-07-13T13:29:31;21.50;87.60
26270;DHT22;15937;50.612;6.656;2023-07-13T13:33:32;22.20;87.70
26270;DHT22;15937;50.612;6.656;2023-07-13T13:37:35;22.30;88.40
26270;DHT22;15937;50.612;6.656;2023-07-13T13:41:37;22.20;85.10
26270;DHT22;15937;50.612;6.656;2023-07-13T13:45:38;22.30;87.00
26270;DHT22;15937;50.612;6.656;2023-07-13T13:49:41;22.30;85.00
26270;DHT22;15937;50.612;6.656;2023-07-13T13:53:43;22.90;82.80
26270;DHT22;15937;50.612;6.656;2023-07-13T13:57:45;22.90;81.70
26270;DHT22;15937;50.612;6.656;2023-07-13T14:01:47;22.40;82.60
26270;DHT22;15937;50.612;6.656;2023-07-13T14:05:50;22.80;82.70
26270;DHT22;15937;50.612;6.656;2023-07-13T14:09:54;22.80;81.60
26270;DHT22;15937;50.612;6.656;2023-07-13T14:13:58;23.00;79.70
26270;DHT22;15937;50.612;6.656;2023-07-13T14:18:00;23.50;79.10
26270;DHT22;15937;50.612;6.656;2023-07-13T14:22:02;23.40;76.40
26270;DHT22;15937;50.612;6.656;2023-07-13T14:26:08;22.90;78.00
26270;DHT22;15937;50.612;6.656;2023-07-13T14:30:14;23.50;77.60
26270;DHT22;15937;50.612;6.656;2023-07-13T14:34:17;23.00;77.10
26270;DHT22;15937;50.612;6.656;2023-07-13T14:38:19;23.30;77.40
26270;DHT22;15937;50.612;6.656;2023-07-13T14:42:21;23.50;76.20
26270;DHT22;15937;50.612;6.656;2023-07-13T14:46:28;23.00;76.20
26270;DHT22;15937;50.612;6.656;2023-07-13T14:50:30;23.40;76.50
26270;DHT22;15937;50.612;6.656;2023-07-13T14:54:33;23.40;75.10
26270;DHT22;15937;50.612;6.656;2023-07-13T14:58:35;23.20;74.90
26270;DHT22;15937;50.612;6.656;2023-07-13T15:02:37;23.80;76.20
26270;DHT22;15937;50.612;6.656;2023-07-13T15:06:58;23.30;73.70
26270;DHT22;15937;50.612;6.656;2023-07-13T15:11:01;23.60;73.40
26270;DHT22;15937;50.612;6.656;2023-07-13T15:15:03;23.90;72.40
26270;DHT22;15937;50.612;6.656;2023-07-13T15:19:04;24.00;71.40
26270;DHT22;15937;50.612;6.656;2023-07-13T15:23:08;23.60;73.50
26270;DHT22;15937;50.612;6.656;2023-07-13T15:27:11;23.80;72.60
26270;DHT22;15937;50.612;6.656;2023-07-13T15:31:23;23.30;73.10
26270;DHT22;15937;50.612;6.656;2023-07-13T15:35:26;23.70;73.80
26270;DHT22;15937;50.612;6.656;2023-07-13T15:39:28;23.60;75.10
26270;DHT22;15937;50.612;6.656;2023-07-13T15:43:32;23.90;72.90
26270;DHT22;15937;50.612;6.656;2023-07-13T15:47:35;23.90;73.00
26270;DHT22;15937;50.612;6.656;2023-07-13T15:51:40;23.40;75.30
26270;DHT22;15937;50.612;6.656;2023-07-13T15:55:41;23.30;76.40
26270;DHT22;15937;50.612;6.656;2023-07-13T15:59:43;22.50;77.90
26270;DHT22;15937;50.612;6.656;2023-07-13T16:03:45;22.50;79.70
26270;DHT22;15937;50.612;6.656;2023-07-13T16:07:48;22.50;79.20
26270;DHT22;15937;50.612;6.656;2023-07-13T16:11:51;22.90;78.80
26270;DHT22;15937;50.612;6.656;2023-07-13T16:15:54;22.30;81.20
26270;DHT22;15937;50.612;6.656;2023-07-13T16:19:58;22.10;80.60
26270;DHT22;15937;50.612;6.656;2023-07-13T16:24:00;22.20;80.90
26270;DHT22;15937;50.612;6.656;2023-07-13T16:28:08;22.30;80.90
26270;DHT22;15937;50.612;6.656;2023-07-13T16:32:12;22.10;83.10
26270;DHT22;15937;50.612;6.656;2023-07-13T16:36:14;22.10;84.20
26270;DHT22;15937;50.612;6.656;2023-07-13T16:44:23;22.10;87.60
26270;DHT22;15937;50.612;6.656;2023-07-13T16:48:25;21.90;86.30
26270;DHT22;15937;50.612;6.656;2023-07-13T16:52:30;22.20;86.60
26270;DHT22;15937;50.612;6.656;2023-07-13T16:56:32;21.80;91.80
26270;DHT22;15937;50.612;6.656;2023-07-13T17:00:36;21.30;93.90
26270;DHT22;15937;50.612;6.656;2023-07-13T17:04:38;21.30;94.60
26270;DHT22;15937;50.612;6.656;2023-07-13T17:08:42;21.00;96.30
26270;DHT22;15937;50.612;6.656;2023-07-13T17:12:45;21.10;98.50
26270;DHT22;15937;50.612;6.656;2023-07-13T17:16:52;20.90;99.90
26270;DHT22;15937;50.612;6.656;2023-07-13T17:20:56;20.50;99.90
26270;DHT22;15937;50.612;6.656;2023-07-13T17:24:57;20.40;99.90
26270;DHT22;15937;50.612;6.656;2023-07-13T17:29:00;20.60;99.90
26270;DHT22;15937;50.612;6.656;2023-07-13T17:33:05;20.70;99.90
26270;DHT22;15937;50.612;6.656;2023-07-13T17:37:10;20.50;99.90
26270;DHT22;15937;50.612;6.656;2023-07-13T17:41:13;20.80;99.90
26270;DHT22;15937;50.612;6.656;2023-07-13T17:45:18;21.00;99.90
26270;DHT22;15937;50.612;6.656;2023-07-13T17:49:23;21.00;99.90
26270;DHT22;15937;50.612;6.656;2023-07-13T17:53:32;20.80;99.90
26270;DHT22;15937;50.612;6.656;2023-07-13T17:57:35;20.90;99.90
26270;DHT22;15937;50.612;6.656;2023-07-13T18:01:37;21.40;99.90
26270;DHT22;15937;50.612;6.656;2023-07-13T18:05:42;21.00;99.90
26270;DHT22;15937;50.612;6.656;2023-07-13T18:09:44;20.80;99.90
26270;DHT22;15937;50.612;6.656;2023-07-13T18:13:48;20.70;99.90
26270;DHT22;15937;50.612;6.656;2023-07-13T18:17:50;21.00;99.90
26270;DHT22;15937;50.612;6.656;2023-07-13T18:21:52;21.10;99.90
26270;DHT22;15937;50.612;6.656;2023-07-13T18:25:54;20.90;99.90
26270;DHT22;15937;50.612;6.656;2023-07-13T18:29:56;20.80;99.90
26270;DHT22;15937;50.612;6.656;2023-07-13T18:33:58;20.50;99.90
26270;DHT22;15937;50.612;6.656;2023-07-13T18:38:03;20.40;99.90
26270;DHT22;15937;50.612;6.656;2023-07-13T18:42:08;20.10;99.90
26270;DHT22;15937;50.612;6.656;2023-07-13T18:46:19;20.20;99.90
26270;DHT22;15937;50.612;6.656;2023-07-13T18:50:24;20.20;99.90
26270;DHT22;15937;50.612;6.656;2023-07-13T18:54:28;20.20;99.90
26270;DHT22;15937;50.612;6.656;2023-07-13T18:58:29;20.20;99.90
26270;DHT22;15937;50.612;6.656;2023-07-13T19:02:31;19.80;99.90
26270;DHT22;15937;50.612;6.656;2023-07-13T19:06:33;19.70;99.90
26270;DHT22;15937;50.612;6.656;2023-07-13T19:10:35;19.80;99.90
26270;DHT22;15937;50.612;6.656;2023-07-13T19:14:36;20.00;99.90
26270;DHT22;15937;50.612;6.656;2023-07-13T19:18:38;20.00;99.90
26270;DHT22;15937;50.612;6.656;2023-07-13T19:22:40;19.90;99.90
26270;DHT22;15937;50.612;6.656;2023-07-13T19:26:42;19.90;99.90
26270;DHT22;15937;50.612;6.656;2023-07-13T19:30:44;19.80;99.90
26270;DHT22;15937;50.612;6.656;2023-07-13T19:34:45;19.40;99.90
26270;DHT22;15937;50.612;6.656;2023-07-13T19:38:48;19.80;99.90
26270;DHT22;15937;50.612;6.656;2023-07-13T19:42:51;20.20;99.90
26270;DHT22;15937;50.612;6.656;2023-07-13T19:46:53;19.60;99.90
26270;DHT22;15937;50.612;6.656;2023-07-13T19:51:00;19.40;99.90
26270;DHT22;15937;50.612;6.656;2023-07-13T19:55:04;19.50;99.90
26270;DHT22;15937;50.612;6.656;2023-07-13T19:59:23;19.50;99.90
26270;DHT22;15937;50.612;6.656;2023-07-13T20:03:25;19.60;99.90
26270;DHT22;15937;50.612;6.656;2023-07-13T20:07:28;19.60;99.90
26270;DHT22;15937;50.612;6.656;2023-07-13T20:11:30;19.30;99.90
26270;DHT22;15937;50.612;6.656;2023-07-13T20:15:31;18.80;99.90
26270;DHT22;15937;50.612;6.656;2023-07-13T20:19:34;18.80;99.90
26270;DHT22;15937;50.612;6.656;2023-07-13T20:23:36;18.80;99.90
26270;DHT22;15937;50.612;6.656;2023-07-13T20:27:38;18.80;99.90
26270;DHT22;15937;50.612;6.656;2023-07-13T20:31:40;18.90;99.90
26270;DHT22;15937;50.612;6.656;2023-07-13T20:35:42;19.10;99.90
26270;DHT22;15937;50.612;6.656;2023-07-13T20:39:46;18.80;99.90
26270;DHT22;15937;50.612;6.656;2023-07-13T20:43:54;18.70;99.90
26270;DHT22;15937;50.612;6.656;2023-07-13T20:47:57;18.80;99.90
26270;DHT22;15937;50.612;6.656;2023-07-13T20:52:00;18.70;99.90
26270;DHT22;15937;50.612;6.656;2023-07-13T20:56:13;18.70;99.90
26270;DHT22;15937;50.612;6.656;2023-07-13T21:00:16;18.50;99.90
26270;DHT22;15937;50.612;6.656;2023-07-13T21:04:19;18.20;99.90
26270;DHT22;15937;50.612;6.656;2023-07-13T21:08:22;18.00;99.90
26270;DHT22;15937;50.612;6.656;2023-07-13T21:12:24;18.40;99.90
26270;DHT22;15937;50.612;6.656;2023-07-13T21:16:27;18.30;99.90
26270;DHT22;15937;50.612;6.656;2023-07-13T21:20:30;18.20;99.90
26270;DHT22;15937;50.612;6.656;2023-07-13T21:24:33;18.00;99.90
26270;DHT22;15937;50.612;6.656;2023-07-13T21:28:36;17.60;99.90
26270;DHT22;15937;50.612;6.656;2023-07-13T21:32:38;17.70;99.90
26270;DHT22;15937;50.612;6.656;2023-07-13T21:36:40;17.40;99.90
26270;DHT22;15937;50.612;6.656;2023-07-13T21:40:41;17.40;99.90
26270;DHT22;15937;50.612;6.656;2023-07-13T21:44:44;17.10;99.90
26270;DHT22;15937;50.612;6.656;2023-07-13T21:48:46;17.00;99.90
26270;DHT22;15937;50.612;6.656;2023-07-13T21:52:48;16.80;99.90
26270;DHT22;15937;50.612;6.656;2023-07-13T21:56:49;17.00;99.90
26270;DHT22;15937;50.612;6.656;2023-07-13T22:00:51;17.30;99.90
26270;DHT22;15937;50.612;6.656;2023-07-13T22:04:53;17.10;99.90
26270;DHT22;15937;50.612;6.656;2023-07-13T22:08:55;17.10;99.90
26270;DHT22;15937;50.612;6.656;2023-07-13T22:13:00;17.20;99.90
26270;DHT22;15937;50.612;6.656;2023-07-13T22:17:02;17.20;99.90
26270;DHT22;15937;50.612;6.656;2023-07-13T22:21:03;17.30;99.90
26270;DHT22;15937;50.612;6.656;2023-07-13T22:25:06;17.40;99.90
26270;DHT22;15937;50.612;6.656;2023-07-13T22:29:31;17.10;99.90
26270;DHT22;15937;50.612;6.656;2023-07-13T22:33:30;16.90;99.90
26270;DHT22;15937;50.612;6.656;2023-07-13T22:37:34;17.00;99.90
26270;DHT22;15937;50.612;6.656;2023-07-13T22:41:36;17.10;99.90
26270;DHT22;15937;50.612;6.656;2023-07-13T22:45:38;17.00;99.90
26270;DHT22;15937;50.612;6.656;2023-07-13T22:49:39;17.20;99.90
26270;DHT22;15937;50.612;6.656;2023-07-13T22:53:41;17.00;99.90
26270;DHT22;15937;50.612;6.656;2023-07-13T22:57:43;16.80;99.90
26270;DHT22;15937;50.612;6.656;2023-07-13T23:01:49;16.70;99.90
26270;DHT22;15937;50.612;6.656;2023-07-13T23:05:51;16.70;99.90
26270;DHT22;15937;50.612;6.656;2023-07-13T23:09:53;16.50;99.90
26270;DHT22;15937;50.612;6.656;2023-07-13T23:14:09;16.40;99.90
26270;DHT22;15937;50.612;6.656;2023-07-13T23:18:10;16.40;99.90
26270;DHT22;15937;50.612;6.656;2023-07-13T23:22:22;16.40;99.90
26270;DHT22;15937;50.612;6.656;2023-07-13T23:26:26;16.60;99.90
26270;DHT22;15937;50.612;6.656;2023-07-13T23:30:29;16.80;99.90
26270;DHT22;15937;50.612;6.656;2023-07-13T23:34:31;17.00;99.90
26270;DHT22;15937;50.612;6.656;2023-07-13T23:38:33;17.00;99.90
26270;DHT22;15937;50.612;6.656;2023-07-13T23:42:34;17.10;99.90
26270;DHT22;15937;50.612;6.656;2023-07-13T23:50:38;17.40;99.90
26270;DHT22;15937;50.612;6.656;2023-07-13T23:54:41;17.60;99.90
26270;DHT22;15937;50.612;6.656;2023-07-13T23:58:43;17.60;99.90
